createdAt,value
2023-01-21T09:06:03.913Z,-1.00
2023-01-21T09:11:02.282Z,-0.80
2023-01-21T09:15:55.794Z,-0.60
2023-01-21T09:20:50.137Z,-0.40
2023-01-21T09:25:45.364Z,-0.20
2023-01-21T09:30:39.107Z,0.00
2023-01-21T09:35:32.766Z,0.20
2023-01-21T09:40:26.547Z,0.40
2023-01-21T09:45:23.025Z,0.50
2023-01-21T09:50:21.727Z,0.70
2023-01-21T09:55:18.692Z,0.90
2023-01-21T10:00:32.444Z,1.10
2023-01-21T10:06:06.198Z,1.40
2023-01-21T10:11:12.340Z,1.50
2023-01-21T10:16:15.484Z,1.60
2023-01-21T10:21:17.139Z,1.70
2023-01-21T10:26:14.783Z,1.80
2023-01-21T10:31:22.812Z,1.90
2023-01-21T10:36:47.974Z,2.20
2023-01-21T10:41:55.941Z,2.50
2023-01-21T10:46:56.398Z,2.80
2023-01-21T10:51:57.461Z,3.20
2023-01-21T10:57:02.420Z,3.40
2023-01-21T11:02:19.371Z,3.60
2023-01-21T11:07:23.025Z,3.70
2023-01-21T11:12:24.950Z,3.80
2023-01-21T11:17:35.608Z,3.80
2023-01-21T11:22:32.937Z,3.90
2023-01-21T11:27:34.450Z,3.90
2023-01-21T11:32:35.870Z,4.00
2023-01-21T11:37:32.003Z,4.10
2023-01-21T11:42:26.059Z,4.00
2023-01-21T11:47:33.953Z,4.10
2023-01-21T11:52:29.902Z,4.10
2023-01-21T11:57:29.957Z,4.30
2023-01-21T12:02:27.297Z,4.40
2023-01-21T12:07:25.864Z,4.40
2023-01-21T12:12:41.748Z,4.40
2023-01-21T12:17:51.182Z,4.30
2023-01-21T12:23:00.703Z,4.20
2023-01-21T12:28:11.367Z,4.10
2023-01-21T12:33:15.172Z,4.10
2023-01-21T12:38:19.603Z,4.10
2023-01-21T12:43:19.910Z,4.00
2023-01-21T12:48:20.035Z,4.00
2023-01-21T12:53:37.465Z,3.90
2023-01-21T12:58:34.173Z,3.90
2023-01-21T13:03:34.330Z,3.80
2023-01-21T13:08:47.445Z,3.70
2023-01-21T13:13:47.120Z,3.70
2023-01-21T13:18:44.490Z,3.70
2023-01-21T13:23:46.916Z,3.70
2023-01-21T13:28:47.467Z,3.70
2023-01-21T13:33:54.835Z,3.70
2023-01-21T13:39:00.355Z,3.70
2023-01-21T13:44:21.690Z,3.70
2023-01-21T13:49:55.885Z,3.70
2023-01-21T13:55:15.911Z,3.60
2023-01-21T14:00:16.987Z,3.60
2023-01-21T14:05:18.340Z,3.50
2023-01-21T14:10:19.772Z,3.40
2023-01-21T14:15:32.821Z,3.30
2023-01-21T14:21:09.063Z,3.30
2023-01-21T14:26:15.080Z,3.20
2023-01-21T14:31:13.654Z,3.20
